Kezdőlap
METAR-TAF:

METAR-TAF

Repülőterek :

Municipal_Airport

Plymouth, New Hampshire, Amerikai Egyesült Államok

földrajzi szélesség: 43-46-45N, földrajzi hosszúság: 071-45-13W, magasság: 154 m

Jelenlegi meteorológiai megfigyelések

A jelentés 9 perccel ezelõtt készült, 23:55 UTC
Kelet-délkeleti szél 3 kt
Hőmérséklet -10°C
Páratartalom 92%
Légköri nyomás 1019 hPa
Látótávolság: 1.6 km
Borult 500 lábon

METAR: K1P1 182355Z AUTO 11003KT 1SM SN OVC005 M10/M11 A3008 RMK AO2 P0003 60003 T11011115 11082 21108

Idő: 19:04 (00:04 UTC)


TAF: hiányzik

Meteorológiai megfigyelések és előrejelzések több, mint 4000 repülőtéren (METAR és TAF jelentéseket).

A térképen piros és sárga pontok jelzik az elérhető meteorológiai állomásokat.

Mozgassa az egeret a pont fölött, hogy megjelenjen az állomás neve.

Azután kattintson az időjárási megfigyelések és előrejelzések megtekintéséhez.

A térkép megváltoztatása: kattintson a fekete keresztel jelölt zöld gombra ráközelítéshez, a vonallal jelölt zöld gombra távolításhoz, vagy a zöld nyilakra a szomszédos térképek eléréséhez.


METAR-TAF: